createdAt,value
2022-12-22T00:01:31.777Z,1.10
2022-12-22T00:04:16.844Z,0.98
2022-12-22T00:07:02.059Z,1.13
2022-12-22T00:09:47.218Z,0.95
2022-12-22T00:12:33.384Z,1.13
2022-12-22T00:15:19.271Z,0.95
2022-12-22T00:18:04.772Z,0.90
2022-12-22T00:20:50.040Z,1.10
2022-12-22T00:23:35.393Z,1.08
2022-12-22T00:26:20.637Z,1.17
2022-12-22T00:29:06.483Z,1.00
2022-12-22T00:31:51.587Z,0.95
2022-12-22T00:34:40.470Z,0.90
2022-12-22T00:37:32.614Z,1.23
2022-12-22T00:40:20.779Z,1.02
2022-12-22T00:43:05.931Z,1.30
2022-12-22T00:45:50.980Z,1.10
2022-12-22T00:48:44.541Z,0.90
2022-12-22T00:51:29.759Z,0.95
2022-12-22T00:54:14.767Z,0.90
2022-12-22T00:57:00.051Z,0.93
2022-12-22T00:59:45.686Z,1.20
2022-12-22T01:02:31.168Z,0.88
2022-12-22T01:05:16.776Z,1.00
2022-12-22T01:08:01.855Z,1.27
2022-12-22T01:10:47.003Z,1.20
2022-12-22T01:13:33.071Z,0.90
2022-12-22T01:16:18.716Z,1.27
2022-12-22T01:19:03.983Z,0.85
2022-12-22T01:21:49.280Z,1.00
2022-12-22T01:24:35.605Z,1.30
2022-12-22T01:27:21.205Z,0.95
2022-12-22T01:30:06.237Z,0.93
2022-12-22T01:32:51.920Z,0.90
2022-12-22T01:35:42.746Z,1.00
2022-12-22T01:38:27.791Z,0.98
2022-12-22T01:41:13.817Z,0.98
2022-12-22T01:43:58.972Z,0.85
2022-12-22T01:47:04.076Z,1.25
2022-12-22T01:50:01.028Z,1.00
2022-12-22T01:52:50.055Z,1.10
2022-12-22T01:55:36.863Z,1.02
2022-12-22T01:58:22.021Z,1.17
2022-12-22T02:01:07.404Z,1.23
2022-12-22T02:03:52.701Z,0.93
2022-12-22T02:06:47.844Z,0.98
2022-12-22T02:09:46.560Z,0.95
2022-12-22T02:12:52.199Z,1.10
2022-12-22T02:15:38.130Z,0.93
2022-12-22T02:18:30.850Z,1.08
2022-12-22T02:21:21.982Z,1.10
2022-12-22T02:24:29.408Z,0.90
2022-12-22T02:27:15.725Z,1.15
2022-12-22T02:30:05.742Z,1.02
2022-12-22T02:33:02.312Z,1.10
2022-12-22T02:35:57.968Z,0.80
2022-12-22T02:38:46.140Z,1.00
2022-12-22T02:41:55.488Z,0.85
2022-12-22T02:44:43.764Z,1.42
2022-12-22T02:47:59.386Z,1.00
2022-12-22T02:50:48.655Z,1.00
2022-12-22T02:53:34.376Z,1.00
2022-12-22T02:56:21.001Z,1.05
2022-12-22T02:59:06.436Z,0.88
2022-12-22T03:01:51.571Z,1.27
2022-12-22T03:04:36.883Z,0.80
2022-12-22T03:07:21.986Z,1.08
2022-12-22T03:10:07.379Z,0.90
2022-12-22T03:12:52.627Z,0.90
2022-12-22T03:15:37.794Z,0.95
2022-12-22T03:18:27.413Z,0.98
2022-12-22T03:21:12.670Z,1.00
2022-12-22T03:23:57.731Z,0.95
2022-12-22T03:26:25.116Z,1.20
2022-12-22T03:28:51.788Z,1.00
2022-12-22T03:31:18.536Z,1.13
2022-12-22T03:33:45.319Z,1.05
2022-12-22T03:36:11.974Z,1.10
2022-12-22T03:38:38.728Z,1.33
2022-12-22T03:41:05.542Z,1.05
2022-12-22T03:43:51.493Z,1.08
2022-12-22T03:46:33.250Z,1.20
2022-12-22T03:49:09.985Z,1.13
2022-12-22T03:51:47.634Z,1.20
2022-12-22T03:54:16.212Z,1.08
2022-12-22T03:56:42.960Z,0.93
2022-12-22T03:59:09.854Z,1.23
2022-12-22T04:01:44.777Z,1.40
2022-12-22T04:04:11.792Z,1.20
2022-12-22T04:06:38.687Z,1.33
2022-12-22T04:09:05.755Z,1.13
2022-12-22T04:11:51.201Z,1.70
2022-12-22T04:14:18.020Z,1.98
2022-12-22T04:16:44.847Z,2.10
2022-12-22T04:19:11.668Z,2.60
2022-12-22T04:21:38.398Z,3.13
2022-12-22T04:24:05.466Z,1.73
2022-12-22T04:26:32.551Z,1.77
2022-12-22T04:28:59.331Z,2.00
2022-12-22T04:31:26.108Z,2.20
2022-12-22T04:33:52.845Z,1.92
2022-12-22T04:36:19.649Z,1.83
2022-12-22T04:38:46.333Z,2.00
2022-12-22T04:41:13.167Z,2.00
2022-12-22T04:43:39.903Z,1.80
2022-12-22T04:46:06.798Z,1.95
2022-12-22T04:48:33.745Z,1.73
2022-12-22T04:51:00.642Z,1.98
2022-12-22T04:53:28.264Z,1.70
2022-12-22T04:55:56.605Z,1.60
2022-12-22T04:58:23.372Z,1.33
2022-12-22T05:00:50.092Z,1.63
2022-12-22T05:03:16.889Z,1.85
2022-12-22T05:05:43.705Z,1.70
2022-12-22T05:08:10.441Z,1.48
2022-12-22T05:10:37.112Z,1.92
2022-12-22T05:13:03.781Z,2.25
2022-12-22T05:15:32.019Z,2.28
2022-12-22T05:17:59.000Z,1.58
2022-12-22T05:20:25.964Z,1.40
2022-12-22T05:22:52.677Z,1.40
2022-12-22T05:25:22.229Z,1.90
2022-12-22T05:27:49.560Z,1.20
2022-12-22T05:30:16.659Z,1.30
2022-12-22T05:32:43.422Z,1.10
2022-12-22T05:35:10.294Z,1.27
2022-12-22T05:37:36.956Z,1.25
2022-12-22T05:40:04.015Z,1.63
2022-12-22T05:42:36.614Z,1.60
2022-12-22T05:45:05.513Z,1.45
2022-12-22T05:47:32.459Z,1.30
2022-12-22T05:49:59.153Z,1.30
2022-12-22T05:52:25.929Z,1.13
2022-12-22T05:54:52.720Z,1.13
2022-12-22T05:57:19.467Z,1.40
2022-12-22T05:59:46.268Z,1.00
2022-12-22T06:02:13.122Z,0.95
2022-12-22T06:04:39.945Z,0.85
2022-12-22T06:07:06.614Z,0.88
2022-12-22T06:09:33.303Z,1.05
2022-12-22T06:11:59.963Z,1.00
2022-12-22T06:14:26.592Z,1.05
2022-12-22T06:16:53.269Z,1.20
2022-12-22T06:19:20.063Z,1.17
2022-12-22T06:21:46.762Z,1.27
2022-12-22T06:24:13.459Z,1.38
2022-12-22T06:26:40.244Z,1.00
2022-12-22T06:29:07.040Z,1.05
2022-12-22T06:31:33.965Z,1.27
2022-12-22T06:34:00.684Z,1.10
2022-12-22T06:36:27.496Z,0.90
2022-12-22T06:38:54.191Z,1.00
2022-12-22T06:41:40.827Z,0.63
2022-12-22T06:44:07.489Z,0.90
2022-12-22T06:46:34.606Z,0.70
2022-12-22T06:49:01.311Z,0.70
2022-12-22T06:51:28.088Z,0.70
2022-12-22T06:53:54.761Z,0.60
2022-12-22T06:56:21.489Z,0.90
2022-12-22T06:58:48.214Z,1.00
2022-12-22T07:01:14.932Z,1.35
2022-12-22T07:03:41.741Z,0.90
2022-12-22T07:06:08.624Z,0.93
2022-12-22T07:08:35.451Z,0.70
2022-12-22T07:11:02.192Z,0.70
2022-12-22T07:13:34.191Z,0.80
2022-12-22T07:16:02.302Z,0.60
2022-12-22T07:18:33.650Z,0.50
2022-12-22T07:21:04.326Z,0.70
2022-12-22T07:23:31.294Z,0.50
2022-12-22T07:25:58.284Z,0.60
2022-12-22T07:28:25.042Z,0.60
2022-12-22T07:30:51.947Z,0.55
2022-12-22T07:33:18.850Z,0.60
2022-12-22T07:35:45.798Z,0.70
2022-12-22T07:38:12.657Z,0.75
2022-12-22T07:40:42.077Z,0.60
2022-12-22T07:43:09.345Z,0.60
2022-12-22T07:45:36.422Z,0.63
2022-12-22T07:48:24.071Z,0.60
2022-12-22T07:50:50.870Z,0.52
2022-12-22T07:53:17.552Z,0.63
2022-12-22T07:55:44.292Z,0.63
2022-12-22T07:58:11.031Z,0.80
2022-12-22T08:00:37.905Z,0.95
2022-12-22T08:03:04.823Z,0.95
2022-12-22T08:05:31.672Z,0.95
2022-12-22T08:07:58.409Z,0.85
2022-12-22T08:10:25.244Z,0.90
2022-12-22T08:12:52.118Z,0.70
2022-12-22T08:15:18.825Z,0.70
2022-12-22T08:17:45.679Z,0.60
2022-12-22T08:20:12.478Z,0.60
2022-12-22T08:22:39.436Z,0.60
2022-12-22T08:25:06.318Z,0.95
2022-12-22T08:27:39.741Z,0.57
2022-12-22T08:32:35.005Z,0.68
2022-12-22T08:35:02.783Z,0.70
2022-12-22T08:37:29.500Z,0.75
2022-12-22T08:39:57.959Z,0.60
2022-12-22T08:42:24.685Z,0.60
2022-12-22T08:44:54.211Z,0.52
2022-12-22T08:47:22.136Z,0.70
2022-12-22T08:49:49.662Z,0.90
2022-12-22T08:52:18.635Z,0.50
2022-12-22T08:54:46.697Z,0.70
2022-12-22T08:57:13.888Z,0.70
2022-12-22T08:59:40.617Z,0.50
2022-12-22T09:02:07.539Z,0.60
2022-12-22T09:04:34.555Z,1.10
2022-12-22T09:07:02.763Z,0.75
2022-12-22T09:09:32.591Z,0.68
2022-12-22T09:11:59.543Z,0.82
2022-12-22T09:14:26.254Z,0.90
2022-12-22T09:16:53.116Z,1.05
2022-12-22T09:19:20.107Z,0.70
2022-12-22T09:21:46.891Z,1.00
2022-12-22T09:24:13.755Z,0.80
2022-12-22T09:26:40.855Z,0.90
2022-12-22T09:29:07.604Z,1.17
2022-12-22T09:31:34.518Z,1.25
2022-12-22T09:34:01.338Z,0.60
2022-12-22T09:36:29.542Z,0.90
2022-12-22T09:38:56.408Z,0.75
2022-12-22T09:41:29.489Z,0.90
2022-12-22T09:43:56.648Z,0.57
2022-12-22T09:46:25.772Z,1.00
2022-12-22T09:48:54.429Z,0.90
2022-12-22T09:51:26.796Z,0.80
2022-12-22T09:54:00.627Z,0.80
2022-12-22T09:56:28.214Z,0.95
2022-12-22T09:58:54.949Z,1.10
2022-12-22T10:01:40.163Z,0.68
2022-12-22T10:04:28.525Z,0.80
2022-12-22T10:07:22.241Z,0.60
2022-12-22T10:09:51.168Z,0.80
2022-12-22T10:12:23.591Z,0.90
2022-12-22T10:14:51.236Z,1.10
2022-12-22T10:17:32.256Z,1.08
2022-12-22T10:20:21.814Z,0.75
2022-12-22T10:22:55.920Z,0.73
2022-12-22T10:28:23.002Z,0.82
2022-12-22T10:30:49.713Z,0.68
2022-12-22T10:33:18.365Z,0.70
2022-12-22T10:35:51.941Z,0.73
2022-12-22T10:38:32.660Z,1.00
2022-12-22T10:41:22.738Z,0.63
2022-12-22T10:43:54.413Z,0.70
2022-12-22T10:46:35.295Z,0.68
2022-12-22T10:49:28.787Z,0.90
2022-12-22T10:51:57.793Z,0.80
2022-12-22T10:54:29.469Z,0.80
2022-12-22T10:57:20.787Z,0.85
2022-12-22T10:59:51.454Z,0.68
2022-12-22T11:02:21.433Z,0.90
2022-12-22T11:04:49.220Z,0.88
2022-12-22T11:07:16.086Z,0.88
2022-12-22T11:09:43.416Z,1.30
2022-12-22T11:12:31.985Z,0.88
2022-12-22T11:15:33.099Z,0.68
2022-12-22T11:18:19.758Z,1.30
2022-12-22T11:21:09.091Z,1.70
2022-12-22T11:23:54.206Z,1.60
2022-12-22T11:26:43.328Z,1.10
2022-12-22T11:29:25.561Z,0.60
2022-12-22T11:32:07.249Z,0.80
2022-12-22T11:35:15.675Z,0.80
2022-12-22T11:37:54.007Z,1.40
2022-12-22T11:40:32.287Z,1.38
2022-12-22T11:43:09.215Z,1.30
2022-12-22T11:46:13.560Z,1.95
2022-12-22T11:48:49.335Z,1.33
2022-12-22T11:51:27.718Z,1.50
2022-12-22T11:54:22.527Z,1.27
2022-12-22T11:56:56.485Z,0.90
2022-12-22T11:59:41.957Z,1.05
2022-12-22T12:02:28.732Z,1.00
2022-12-22T12:05:26.702Z,0.85
2022-12-22T12:08:18.359Z,0.70
2022-12-22T12:10:51.791Z,0.63
2022-12-22T12:13:34.790Z,0.80
2022-12-22T12:16:25.945Z,0.90
2022-12-22T12:18:56.220Z,0.88
2022-12-22T12:21:29.974Z,1.58
2022-12-22T12:24:27.729Z,0.70
2022-12-22T12:26:57.471Z,0.80
2022-12-22T12:30:06.526Z,0.95
2022-12-22T12:32:40.378Z,0.90
2022-12-22T12:35:22.188Z,0.60
2022-12-22T12:37:50.708Z,0.75
2022-12-22T12:40:42.248Z,0.70
2022-12-22T12:43:16.066Z,0.60
2022-12-22T12:45:45.302Z,0.85
2022-12-22T12:48:21.285Z,0.68
2022-12-22T12:50:54.180Z,0.90
2022-12-22T12:53:30.037Z,0.50
2022-12-22T12:56:01.785Z,0.98
2022-12-22T12:58:37.792Z,0.75
2022-12-22T13:01:20.751Z,0.85
2022-12-22T13:04:05.414Z,0.88
2022-12-22T13:06:50.595Z,0.90
2022-12-22T13:09:50.568Z,1.23
2022-12-22T13:12:49.181Z,1.63
2022-12-22T13:15:29.896Z,1.52
2022-12-22T13:17:57.234Z,1.70
2022-12-22T13:20:32.553Z,1.10
2022-12-22T13:23:00.375Z,2.17
2022-12-22T13:25:42.699Z,1.58
2022-12-22T13:28:14.809Z,1.30
2022-12-22T13:30:45.706Z,1.73
2022-12-22T13:33:13.400Z,1.50
2022-12-22T13:35:47.090Z,1.52
2022-12-22T13:38:32.239Z,1.65
2022-12-22T13:41:26.495Z,1.42
2022-12-22T13:43:56.021Z,1.30
2022-12-22T13:46:22.747Z,1.48
2022-12-22T13:48:50.145Z,1.52
2022-12-22T13:51:25.310Z,0.90
2022-12-22T13:54:10.996Z,1.25
2022-12-22T13:56:38.942Z,1.15
2022-12-22T13:59:05.678Z,1.02
2022-12-22T14:01:32.652Z,0.70
2022-12-22T14:04:03.987Z,0.82
2022-12-22T14:06:37.362Z,0.65
2022-12-22T14:09:33.703Z,0.70
2022-12-22T14:12:00.561Z,0.63
2022-12-22T14:14:28.683Z,0.80
2022-12-22T14:16:57.823Z,0.65
2022-12-22T14:19:25.120Z,1.17
2022-12-22T14:22:08.468Z,1.02
2022-12-22T14:24:43.484Z,0.43
2022-12-22T14:27:43.731Z,0.80
2022-12-22T14:30:19.154Z,0.60
2022-12-22T14:32:54.817Z,0.95
2022-12-22T14:35:22.579Z,0.60
2022-12-22T14:37:56.132Z,0.90
2022-12-22T14:40:32.675Z,0.75
2022-12-22T14:43:00.317Z,0.98
2022-12-22T14:45:27.335Z,0.75
2022-12-22T14:47:54.483Z,0.70
2022-12-22T14:50:25.855Z,0.60
2022-12-22T14:52:59.812Z,0.65
2022-12-22T14:55:37.344Z,0.60
2022-12-22T14:58:12.622Z,0.95
2022-12-22T15:00:40.739Z,0.95
2022-12-22T15:03:27.972Z,0.50
2022-12-22T15:05:54.831Z,0.88
2022-12-22T15:08:40.959Z,0.80
2022-12-22T15:11:15.219Z,0.90
2022-12-22T15:13:42.869Z,0.80
2022-12-22T15:16:14.761Z,0.70
2022-12-22T15:18:41.578Z,0.65
2022-12-22T15:21:09.587Z,0.85
2022-12-22T15:23:36.332Z,0.57
2022-12-22T15:26:03.581Z,0.90
2022-12-22T15:28:30.311Z,1.02
2022-12-22T15:30:58.515Z,0.90
2022-12-22T15:33:25.352Z,1.00
2022-12-22T15:35:52.220Z,1.05
2022-12-22T15:38:23.253Z,1.10
2022-12-22T15:40:50.066Z,1.30
2022-12-22T15:43:54.045Z,1.00
2022-12-22T15:46:04.792Z,1.00
2022-12-22T15:48:33.223Z,1.00
2022-12-22T15:51:00.197Z,1.10
2022-12-22T15:53:29.007Z,1.05
2022-12-22T15:55:58.362Z,0.98
2022-12-22T15:58:27.884Z,0.80
2022-12-22T16:00:55.082Z,0.68
2022-12-22T16:03:21.880Z,0.60
2022-12-22T16:05:48.709Z,0.85
2022-12-22T16:08:18.286Z,0.70
2022-12-22T16:10:45.246Z,0.63
2022-12-22T16:13:12.779Z,0.80
2022-12-22T16:15:39.672Z,0.73
2022-12-22T16:18:06.714Z,0.90
2022-12-22T16:20:38.291Z,0.82
2022-12-22T16:23:05.477Z,0.63
2022-12-22T16:25:34.335Z,0.82
2022-12-22T16:28:01.487Z,0.80
2022-12-22T16:30:30.416Z,1.08
2022-12-22T16:32:57.206Z,0.70
2022-12-22T16:35:29.068Z,0.70
2022-12-22T16:37:56.503Z,1.10
2022-12-22T16:40:23.637Z,0.93
2022-12-22T16:45:44.618Z,0.90
2022-12-22T16:48:24.644Z,1.17
2022-12-22T16:50:52.374Z,1.33
2022-12-22T16:53:19.208Z,1.40
2022-12-22T16:55:45.944Z,1.27
2022-12-22T16:58:14.064Z,1.27
2022-12-22T17:00:42.341Z,1.45
2022-12-22T17:03:25.607Z,1.40
2022-12-22T17:05:54.255Z,1.30
2022-12-22T17:08:23.505Z,1.38
2022-12-22T17:10:50.528Z,1.20
2022-12-22T17:13:17.667Z,1.40
2022-12-22T17:15:44.486Z,1.27
2022-12-22T17:18:41.127Z,1.85
2022-12-22T17:21:09.154Z,1.05
2022-12-22T17:23:43.080Z,1.55
2022-12-22T17:26:11.876Z,1.23
2022-12-22T17:28:38.601Z,2.10
2022-12-22T17:31:05.596Z,1.65
2022-12-22T17:33:32.529Z,1.50
2022-12-22T17:35:59.317Z,1.27
2022-12-22T17:38:27.180Z,1.30
2022-12-22T17:40:54.136Z,1.55
2022-12-22T17:43:21.203Z,1.13
2022-12-22T17:45:48.347Z,1.63
2022-12-22T17:48:15.679Z,1.65
2022-12-22T17:50:49.598Z,1.73
2022-12-22T17:53:19.932Z,1.90
2022-12-22T17:58:34.214Z,1.55
2022-12-22T18:01:01.473Z,1.40
2022-12-22T18:03:29.084Z,1.58
2022-12-22T18:05:55.932Z,1.70
2022-12-22T18:08:22.746Z,2.30
2022-12-22T18:10:49.511Z,1.50
2022-12-22T18:13:24.326Z,1.63
2022-12-22T18:15:51.086Z,1.70
2022-12-22T18:18:18.245Z,1.70
2022-12-22T18:20:45.362Z,2.15
2022-12-22T18:23:23.672Z,1.98
2022-12-22T18:25:50.386Z,2.15
2022-12-22T18:28:17.184Z,2.13
2022-12-22T18:30:44.308Z,2.00
2022-12-22T18:33:11.220Z,1.85
2022-12-22T18:35:38.045Z,1.38
2022-12-22T18:38:05.226Z,2.10
2022-12-22T18:40:38.591Z,1.48
2022-12-22T18:43:14.424Z,1.67
2022-12-22T18:45:41.324Z,2.13
2022-12-22T18:48:08.909Z,1.90
2022-12-22T18:50:35.994Z,2.13
2022-12-22T18:53:08.927Z,1.75
2022-12-22T18:55:35.646Z,1.65
2022-12-22T18:58:02.493Z,2.90
2022-12-22T19:00:30.453Z,2.75
2022-12-22T19:02:58.487Z,1.67
2022-12-22T19:05:27.310Z,1.67
2022-12-22T19:07:54.157Z,2.08
2022-12-22T19:10:50.797Z,2.10
2022-12-22T19:13:29.624Z,1.55
2022-12-22T19:15:56.486Z,1.42
2022-12-22T19:18:27.099Z,1.83
2022-12-22T19:20:54.701Z,1.55
2022-12-22T19:23:21.909Z,1.65
2022-12-22T19:25:50.572Z,1.55
2022-12-22T19:28:23.492Z,1.80
2022-12-22T19:30:50.924Z,2.10
2022-12-22T19:33:23.417Z,1.55
2022-12-22T19:35:50.327Z,1.30
2022-12-22T19:38:21.980Z,2.42
2022-12-22T19:40:49.739Z,1.50
2022-12-22T19:43:17.151Z,1.35
2022-12-22T19:45:43.846Z,1.25
2022-12-22T19:48:21.827Z,1.15
2022-12-22T19:50:48.944Z,2.00
2022-12-22T19:53:15.676Z,1.77
2022-12-22T19:55:46.749Z,2.17
2022-12-22T19:58:16.356Z,1.67
2022-12-22T20:00:43.181Z,1.50
2022-12-22T20:03:12.461Z,1.67
2022-12-22T20:05:39.292Z,1.75
2022-12-22T20:08:05.995Z,1.63
2022-12-22T20:10:33.451Z,1.30
2022-12-22T20:13:11.594Z,2.03
2022-12-22T20:15:39.003Z,1.27
2022-12-22T20:18:17.543Z,1.83
2022-12-22T20:20:45.303Z,1.90
2022-12-22T20:23:13.302Z,1.23
2022-12-22T20:25:41.709Z,1.35
2022-12-22T20:28:19.816Z,1.58
2022-12-22T20:30:46.643Z,1.88
2022-12-22T20:33:14.745Z,1.40
2022-12-22T20:35:41.901Z,1.35
2022-12-22T20:38:35.845Z,1.67
2022-12-22T20:41:02.906Z,1.20
2022-12-22T20:43:30.377Z,0.93
2022-12-22T20:46:02.882Z,1.55
2022-12-22T20:48:43.769Z,1.55
2022-12-22T20:51:15.872Z,1.52
2022-12-22T20:53:42.815Z,1.40
2022-12-22T20:56:23.417Z,1.13
2022-12-22T20:58:50.204Z,1.10
2022-12-22T21:01:17.028Z,1.05
2022-12-22T21:03:43.838Z,1.00
2022-12-22T21:06:27.727Z,1.20
2022-12-22T21:08:55.406Z,0.95
2022-12-22T21:11:22.354Z,1.05
2022-12-22T21:13:49.297Z,1.25
2022-12-22T21:16:17.650Z,0.90
2022-12-22T21:18:44.574Z,0.90
2022-12-22T21:21:11.821Z,1.65
2022-12-22T21:23:38.862Z,1.30
2022-12-22T21:26:06.273Z,1.60
2022-12-22T21:28:36.549Z,1.55
2022-12-22T21:31:04.387Z,1.17
2022-12-22T21:33:31.486Z,1.00
2022-12-22T21:35:58.649Z,1.52
2022-12-22T21:38:26.976Z,1.45
2022-12-22T21:40:53.757Z,1.35
2022-12-22T21:43:20.613Z,1.23
2022-12-22T21:45:47.432Z,1.30
2022-12-22T21:48:16.419Z,0.82
2022-12-22T21:50:43.263Z,1.02
2022-12-22T21:53:18.055Z,1.48
2022-12-22T21:55:49.061Z,1.00
2022-12-22T21:58:16.022Z,1.48
2022-12-22T22:00:46.078Z,1.15
2022-12-22T22:03:13.841Z,0.82
2022-12-22T22:05:40.704Z,0.70
2022-12-22T22:08:09.971Z,0.68
2022-12-22T22:10:41.302Z,0.70
2022-12-22T22:13:08.836Z,0.60
2022-12-22T22:15:35.806Z,0.80
2022-12-22T22:18:06.897Z,1.05
2022-12-22T22:20:34.821Z,0.73
2022-12-22T22:23:01.541Z,0.70
2022-12-22T22:25:28.252Z,0.68
2022-12-22T22:27:57.558Z,0.60
2022-12-22T22:30:27.478Z,0.70
2022-12-22T22:32:54.910Z,0.47
2022-12-22T22:35:21.994Z,0.52
2022-12-22T22:37:51.895Z,0.63
2022-12-22T22:40:20.717Z,0.52
2022-12-22T22:42:47.521Z,0.55
2022-12-22T22:45:15.619Z,0.75
2022-12-22T22:47:42.366Z,0.57
2022-12-22T22:50:09.522Z,0.55
2022-12-22T22:52:36.448Z,0.52
2022-12-22T22:55:03.847Z,0.52
2022-12-22T22:57:30.560Z,0.47
2022-12-22T22:59:57.270Z,0.43
2022-12-22T23:02:24.210Z,0.50
2022-12-22T23:04:51.085Z,0.65
2022-12-22T23:07:17.853Z,0.50
2022-12-22T23:09:44.512Z,0.50
2022-12-22T23:12:11.382Z,0.52
2022-12-22T23:14:39.701Z,0.70
2022-12-22T23:17:06.434Z,0.60
2022-12-22T23:19:33.105Z,0.60
2022-12-22T23:21:59.797Z,0.60
2022-12-22T23:24:26.979Z,0.50
2022-12-22T23:26:53.695Z,0.50
2022-12-22T23:29:21.031Z,0.50
2022-12-22T23:31:47.852Z,0.40
2022-12-22T23:34:14.827Z,0.60
2022-12-22T23:36:43.177Z,0.47
2022-12-22T23:39:10.147Z,0.40
2022-12-22T23:41:36.830Z,0.40
2022-12-22T23:44:03.519Z,0.40
2022-12-22T23:46:30.311Z,0.50
2022-12-22T23:48:57.700Z,0.60
2022-12-22T23:51:26.744Z,0.30
2022-12-22T23:53:54.547Z,0.60
2022-12-22T23:56:21.367Z,0.40
2022-12-22T23:58:52.578Z,0.47
